Time;durP1;ratioP1;P1;durP2;ratioP2;P2;SDS_P1;SDS_P2;PMS_P1;PMS_P2;Temp;Humidity;BMP_temperature;BMP_pressure;BME280_temperature;BME280_humidity;BME280_pressure;Samples;Min_cycle;Max_cycle;Signal;HPM_P1;HPM_P2
2023/08/09 00:01:03;;;;;;;11.15;6.05;;;;;;;;;;5058840;28;20053;-65
2023/08/09 00:03:31;;;;;;;8.90;7.55;;;;;;;;;;5052465;28;20064;-64
2023/08/09 00:05:57;;;;;;;9.43;7.03;;;;;;;;;;5050590;28;20081;-62
2023/08/09 00:08:24;;;;;;;10.10;6.80;;;;;;;;;;5052381;28;20053;-64
2023/08/09 00:10:50;;;;;;;9.13;6.88;;;;;;;;;;5048761;28;20058;-64
2023/08/09 00:13:17;;;;;;;9.88;7.18;;;;;;;;;;5054097;28;20053;-60
2023/08/09 00:15:43;;;;;;;10.40;7.40;;;;;;;;;;5046723;28;20053;-64
2023/08/09 00:18:10;;;;;;;10.00;6.95;;;;;;;;;;5050005;28;20538;-61
2023/08/09 00:20:36;;;;;;;9.55;7.28;;;;;;;;;;5058811;28;20057;-63
2023/08/09 00:23:03;;;;;;;10.25;7.85;;;;;;;;;;5062505;28;20567;-62
2023/08/09 00:25:29;;;;;;;10.25;7.60;;;;;;;;;;5048260;28;20049;-63
2023/08/09 00:27:56;;;;;;;10.82;7.63;;;;;;;;;;5043122;28;20496;-64
2023/08/09 00:30:22;;;;;;;9.95;7.45;;;;;;;;;;5048298;28;20045;-64
2023/08/09 00:32:49;;;;;;;11.43;8.25;;;;;;;;;;5047644;28;20053;-63
2023/08/09 00:35:15;;;;;;;10.60;8.05;;;;;;;;;;5042808;28;20116;-63
2023/08/09 00:37:42;;;;;;;10.35;7.82;;;;;;;;;;5043282;28;20143;-63
2023/08/09 00:40:11;;;;;;;11.95;7.97;;;;;;;;;;5045196;28;20059;-64
2023/08/09 00:42:39;;;;;;;10.18;7.78;;;;;;;;;;5054406;28;20053;-64
2023/08/09 00:45:07;;;;;;;13.00;8.07;;;;;;;;;;5055578;28;20166;-61
2023/08/09 00:47:34;;;;;;;11.90;8.77;;;;;;;;;;5044322;28;20055;-64
2023/08/09 00:50:01;;;;;;;10.95;7.93;;;;;;;;;;5042898;28;20650;-64
2023/08/09 00:52:28;;;;;;;13.88;8.38;;;;;;;;;;5046792;28;20549;-64
2023/08/09 00:54:55;;;;;;;11.45;8.07;;;;;;;;;;5060115;28;20170;-65
2023/08/09 00:57:21;;;;;;;12.23;8.10;;;;;;;;;;5046250;28;20597;-64
2023/08/09 00:59:47;;;;;;;11.73;7.35;;;;;;;;;;5058361;28;20053;-64
2023/08/09 01:02:14;;;;;;;12.48;7.32;;;;;;;;;;5049675;28;20058;-61
2023/08/09 01:04:41;;;;;;;11.43;7.47;;;;;;;;;;5043413;28;20052;-63
2023/08/09 01:07:23;;;;;;;9.95;7.82;;;;;;;;;;5044076;28;20053;-65
2023/08/09 01:10:09;;;;;;;11.13;7.50;;;;;;;;;;5059472;28;20057;-64
2023/08/09 01:12:47;;;;;;;10.43;7.75;;;;;;;;;;5055580;28;20045;-64
2023/08/09 01:15:16;;;;;;;13.77;8.35;;;;;;;;;;5051653;28;20061;-64
2023/08/09 01:17:43;;;;;;;11.57;7.97;;;;;;;;;;5055759;28;20528;-64
2023/08/09 01:20:13;;;;;;;11.80;7.55;;;;;;;;;;5046011;28;20088;-63
2023/08/09 01:23:15;;;;;;;11.77;8.07;;;;;;;;;;5045908;28;20061;-65
2023/08/09 01:25:41;;;;;;;10.52;8.45;;;;;;;;;;5038142;28;20137;-65
2023/08/09 01:28:08;;;;;;;16.08;8.70;;;;;;;;;;5039886;28;20140;-64
2023/08/09 01:30:34;;;;;;;13.68;8.60;;;;;;;;;;5030754;28;20365;-64
2023/08/09 01:33:01;;;;;;;12.73;8.05;;;;;;;;;;5041594;28;20069;-61
2023/08/09 01:35:28;;;;;;;12.32;7.88;;;;;;;;;;5041122;28;20045;-63
2023/08/09 01:38:04;;;;;;;16.08;10.10;;;;;;;;;;5040929;28;20049;-63
2023/08/09 01:40:31;;;;;;;16.77;9.30;;;;;;;;;;5041132;28;20057;-65
2023/08/09 01:42:58;;;;;;;12.98;8.10;;;;;;;;;;5034623;28;20532;-65
2023/08/09 01:45:25;;;;;;;14.65;9.48;;;;;;;;;;5032784;28;20533;-64
2023/08/09 01:47:52;;;;;;;16.88;9.23;;;;;;;;;;5041340;28;20140;-63
2023/08/09 01:50:26;;;;;;;16.15;8.75;;;;;;;;;;5039724;28;20053;-61
2023/08/09 01:52:56;;;;;;;14.40;9.17;;;;;;;;;;5039511;28;20056;-64
2023/08/09 01:55:25;;;;;;;13.88;8.70;;;;;;;;;;5040519;28;20072;-62
2023/08/09 01:57:52;;;;;;;16.45;8.23;;;;;;;;;;5040118;28;20053;-62
2023/08/09 02:00:19;;;;;;;16.42;8.75;;;;;;;;;;5042711;28;20054;-64
2023/08/09 02:02:47;;;;;;;14.55;9.07;;;;;;;;;;5051769;28;20063;-63
2023/08/09 02:05:13;;;;;;;18.75;9.70;;;;;;;;;;5053082;28;20520;-64
2023/08/09 02:07:40;;;;;;;16.73;9.50;;;;;;;;;;5045138;28;20139;-63
2023/08/09 02:10:07;;;;;;;16.58;9.70;;;;;;;;;;5044137;28;20054;-63
2023/08/09 02:12:34;;;;;;;15.63;9.35;;;;;;;;;;5044668;28;20466;-62
2023/08/09 02:15:01;;;;;;;18.67;9.90;;;;;;;;;;5051636;28;20087;-63
2023/08/09 02:17:27;;;;;;;14.55;9.30;;;;;;;;;;5045757;28;20062;-65
2023/08/09 02:19:54;;;;;;;13.38;8.35;;;;;;;;;;5044215;28;20528;-63
2023/08/09 02:22:20;;;;;;;16.85;9.45;;;;;;;;;;5044442;28;20046;-64
2023/08/09 02:24:47;;;;;;;12.85;7.88;;;;;;;;;;5051380;28;20083;-61
2023/08/09 02:27:13;;;;;;;15.88;9.98;;;;;;;;;;5065058;28;20503;-64
2023/08/09 02:29:40;;;;;;;13.35;8.93;;;;;;;;;;5052450;28;20057;-62
2023/08/09 02:32:07;;;;;;;13.65;9.30;;;;;;;;;;5046055;28;20516;-65
2023/08/09 02:34:33;;;;;;;13.25;8.32;;;;;;;;;;5044060;28;20542;-63
2023/08/09 02:37:00;;;;;;;14.23;9.32;;;;;;;;;;5045012;28;20057;-64
2023/08/09 02:39:27;;;;;;;11.98;8.43;;;;;;;;;;5044503;28;20049;-61
2023/08/09 02:41:53;;;;;;;16.65;9.52;;;;;;;;;;5044096;28;20057;-65
2023/08/09 02:44:19;;;;;;;19.63;8.38;;;;;;;;;;5061133;28;20107;-64
2023/08/09 02:46:46;;;;;;;25.30;9.13;;;;;;;;;;5043372;28;20057;-62
2023/08/09 02:49:12;;;;;;;16.27;8.75;;;;;;;;;;5050421;28;20569;-63
2023/08/09 02:51:39;;;;;;;12.32;8.25;;;;;;;;;;5054137;28;20132;-64
2023/08/09 02:54:05;;;;;;;19.73;9.20;;;;;;;;;;5062556;28;20134;-62
2023/08/09 02:56:33;;;;;;;14.95;8.30;;;;;;;;;;5051164;28;20057;-62
2023/08/09 02:58:59;;;;;;;16.02;8.05;;;;;;;;;;5049762;28;20057;-64
2023/08/09 03:01:26;;;;;;;21.98;8.68;;;;;;;;;;5054853;28;20181;-64
2023/08/09 03:03:53;;;;;;;33.78;10.05;;;;;;;;;;5047967;28;20063;-64
2023/08/09 03:06:22;;;;;;;14.05;8.32;;;;;;;;;;5052504;28;20059;-63
2023/08/09 03:08:49;;;;;;;15.65;9.40;;;;;;;;;;5061436;28;20142;-63
2023/08/09 03:11:21;;;;;;;13.75;8.55;;;;;;;;;;5061701;28;20053;-64
2023/08/09 03:13:48;;;;;;;13.32;9.10;;;;;;;;;;5042425;28;20057;-64
2023/08/09 03:16:14;;;;;;;21.52;9.45;;;;;;;;;;5044162;28;20143;-60
2023/08/09 03:18:41;;;;;;;19.92;8.77;;;;;;;;;;5044763;28;20932;-62
2023/08/09 03:21:07;;;;;;;19.08;9.00;;;;;;;;;;5055550;28;20112;-64
2023/08/09 03:23:34;;;;;;;22.45;10.23;;;;;;;;;;5043162;28;20061;-61
2023/08/09 03:26:01;;;;;;;17.83;9.07;;;;;;;;;;5046096;28;20049;-62
2023/08/09 03:28:28;;;;;;;13.45;8.73;;;;;;;;;;5044492;28;20403;-65
2023/08/09 03:30:54;;;;;;;13.18;9.27;;;;;;;;;;5055048;28;20111;-64
2023/08/09 03:33:20;;;;;;;14.65;9.68;;;;;;;;;;5051317;28;20053;-61
2023/08/09 03:35:47;;;;;;;18.63;10.27;;;;;;;;;;5043701;28;20053;-60
2023/08/09 03:38:13;;;;;;;20.92;9.52;;;;;;;;;;5043834;28;20061;-64
2023/08/09 03:40:40;;;;;;;13.90;8.45;;;;;;;;;;5044076;28;20146;-64
2023/08/09 03:43:07;;;;;;;18.88;9.35;;;;;;;;;;5044734;28;20543;-63
2023/08/09 03:45:33;;;;;;;31.75;9.57;;;;;;;;;;5061914;28;20064;-62
2023/08/09 03:48:00;;;;;;;48.70;10.20;;;;;;;;;;5058560;28;20053;-62
2023/08/09 03:50:26;;;;;;;19.08;9.35;;;;;;;;;;5050588;28;20084;-63
2023/08/09 03:52:53;;;;;;;14.80;9.27;;;;;;;;;;5043152;28;20823;-63
2023/08/09 03:55:19;;;;;;;14.45;9.82;;;;;;;;;;5058654;28;20074;-64
2023/08/09 03:57:46;;;;;;;15.57;9.48;;;;;;;;;;5046374;28;20160;-64
2023/08/09 04:00:17;;;;;;;43.95;9.60;;;;;;;;;;5058060;28;20056;-64
2023/08/09 04:02:45;;;;;;;13.75;9.52;;;;;;;;;;5054051;28;20140;-65
2023/08/09 04:05:12;;;;;;;14.40;8.95;;;;;;;;;;5043172;28;20056;-65
2023/08/09 04:07:38;;;;;;;26.73;9.43;;;;;;;;;;5043011;28;20065;-63
2023/08/09 04:10:06;;;;;;;16.92;9.77;;;;;;;;;;5050526;28;20049;-62
2023/08/09 04:12:33;;;;;;;44.13;12.77;;;;;;;;;;5044628;28;20061;-62
2023/08/09 04:14:59;;;;;;;14.75;8.43;;;;;;;;;;5043604;28;20113;-64
2023/08/09 04:17:26;;;;;;;24.85;10.20;;;;;;;;;;5051034;28;20061;-64
2023/08/09 04:19:52;;;;;;;51.20;11.10;;;;;;;;;;5042362;28;20531;-64
2023/08/09 04:22:19;;;;;;;18.20;8.88;;;;;;;;;;5057716;28;20172;-59
2023/08/09 04:24:45;;;;;;;39.97;9.80;;;;;;;;;;5059956;28;20067;-61
2023/08/09 04:27:12;;;;;;;14.18;9.32;;;;;;;;;;5046482;28;20053;-64
2023/08/09 04:29:38;;;;;;;20.88;9.07;;;;;;;;;;5044160;28;20050;-64
2023/08/09 04:32:04;;;;;;;17.88;8.73;;;;;;;;;;5054844;28;20546;-62
2023/08/09 04:34:31;;;;;;;18.98;8.27;;;;;;;;;;5055870;28;20048;-63
2023/08/09 04:36:57;;;;;;;17.55;8.88;;;;;;;;;;5061349;28;20049;-61
2023/08/09 04:39:24;;;;;;;31.30;9.35;;;;;;;;;;5059466;28;20099;-63
2023/08/09 04:41:50;;;;;;;41.88;9.43;;;;;;;;;;5051738;28;20135;-64
2023/08/09 04:44:17;;;;;;;25.52;8.73;;;;;;;;;;5061332;28;20049;-62
2023/08/09 04:46:44;;;;;;;82.50;9.07;;;;;;;;;;5046886;28;20061;-62
2023/08/09 04:49:12;;;;;;;13.63;8.98;;;;;;;;;;5045614;28;20901;-62
2023/08/09 04:51:38;;;;;;;40.25;10.27;;;;;;;;;;5055996;28;20138;-63
2023/08/09 04:54:05;;;;;;;26.90;9.27;;;;;;;;;;5059807;28;20400;-64
2023/08/09 04:56:31;;;;;;;19.38;8.90;;;;;;;;;;5062173;28;20084;-64
2023/08/09 04:58:58;;;;;;;34.38;9.55;;;;;;;;;;5057460;28;20068;-63
2023/08/09 05:01:24;;;;;;;13.73;8.55;;;;;;;;;;5042880;28;20065;-65
2023/08/09 05:03:51;;;;;;;15.70;9.00;;;;;;;;;;5056490;28;20089;-65
2023/08/09 05:06:17;;;;;;;41.83;9.20;;;;;;;;;;5060434;28;20075;-61
2023/08/09 05:08:44;;;;;;;17.77;8.50;;;;;;;;;;5059211;28;20060;-64
2023/08/09 05:11:11;;;;;;;20.55;8.50;;;;;;;;;;5062839;28;20045;-66
2023/08/09 05:13:37;;;;;;;38.25;8.90;;;;;;;;;;5061739;28;20053;-66
2023/08/09 05:16:03;;;;;;;16.90;9.15;;;;;;;;;;5061166;28;20123;-62
2023/08/09 05:18:30;;;;;;;45.95;9.73;;;;;;;;;;5060553;28;20517;-61
2023/08/09 05:20:58;;;;;;;14.20;9.00;;;;;;;;;;5060772;28;20052;-64
2023/08/09 05:23:24;;;;;;;25.48;8.85;;;;;;;;;;5060424;28;20394;-65
2023/08/09 05:25:50;;;;;;;28.35;9.57;;;;;;;;;;5060652;28;20138;-63
2023/08/09 05:28:17;;;;;;;44.50;9.68;;;;;;;;;;5060703;28;20080;-62
2023/08/09 05:30:44;;;;;;;17.30;9.60;;;;;;;;;;5051499;28;20411;-65
2023/08/09 05:33:10;;;;;;;13.43;9.18;;;;;;;;;;5048804;28;20215;-66
2023/08/09 05:35:37;;;;;;;24.35;9.43;;;;;;;;;;5046780;28;20565;-62
2023/08/09 05:38:03;;;;;;;12.82;9.73;;;;;;;;;;5050929;28;20089;-62
2023/08/09 05:40:30;;;;;;;51.75;10.05;;;;;;;;;;5041953;28;20416;-65
2023/08/09 05:42:56;;;;;;;35.63;9.65;;;;;;;;;;5042246;28;20515;-64
2023/08/09 05:45:23;;;;;;;20.80;10.20;;;;;;;;;;5051971;28;20107;-65
2023/08/09 05:47:49;;;;;;;17.83;10.63;;;;;;;;;;5060016;28;20610;-66
2023/08/09 05:50:16;;;;;;;16.63;10.80;;;;;;;;;;5061735;28;20407;-63
2023/08/09 05:52:43;;;;;;;16.30;9.80;;;;;;;;;;5061578;28;20147;-63
2023/08/09 05:55:09;;;;;;;14.05;9.30;;;;;;;;;;5062670;28;20057;-65
2023/08/09 05:57:36;;;;;;;16.40;10.75;;;;;;;;;;5064134;28;20563;-65
2023/08/09 06:00:04;;;;;;;16.42;10.45;;;;;;;;;;5062383;28;20177;-61
2023/08/09 06:02:33;;;;;;;18.23;10.25;;;;;;;;;;5061614;28;20049;-63
2023/08/09 06:05:00;;;;;;;14.95;9.32;;;;;;;;;;5057829;28;20849;-64
2023/08/09 06:07:27;;;;;;;14.10;9.00;;;;;;;;;;5059832;28;20410;-62
2023/08/09 06:09:55;;;;;;;14.50;10.10;;;;;;;;;;5074079;28;20053;-64
2023/08/09 06:12:38;;;;;;;15.38;9.55;;;;;;;;;;5064987;28;20049;-63
2023/08/09 06:15:05;;;;;;;14.80;9.70;;;;;;;;;;5064803;28;20057;-65
2023/08/09 06:17:32;;;;;;;14.52;9.93;;;;;;;;;;5059892;28;20064;-66
2023/08/09 06:19:59;;;;;;;15.07;9.77;;;;;;;;;;5051856;28;20049;-65
2023/08/09 06:22:25;;;;;;;19.15;10.52;;;;;;;;;;5043969;28;20112;-63
2023/08/09 06:24:52;;;;;;;16.05;10.45;;;;;;;;;;5044849;28;20057;-66
2023/08/09 06:27:18;;;;;;;17.50;10.73;;;;;;;;;;5044122;28;20516;-63
2023/08/09 06:29:44;;;;;;;19.75;10.70;;;;;;;;;;5044157;28;20057;-65
2023/08/09 06:32:11;;;;;;;14.98;10.98;;;;;;;;;;5048988;28;20053;-65
2023/08/09 06:34:37;;;;;;;13.95;10.10;;;;;;;;;;5052952;28;20056;-64
2023/08/09 06:37:04;;;;;;;19.45;10.60;;;;;;;;;;5064548;28;20617;-63
2023/08/09 06:39:33;;;;;;;19.58;11.98;;;;;;;;;;5063869;28;20527;-67
2023/08/09 06:42:00;;;;;;;18.40;11.57;;;;;;;;;;5064835;28;20045;-65
2023/08/09 06:44:29;;;;;;;16.83;10.80;;;;;;;;;;5062103;28;20053;-64
2023/08/09 06:46:55;;;;;;;17.10;11.18;;;;;;;;;;5059834;28;20060;-67
2023/08/09 06:49:22;;;;;;;15.13;10.50;;;;;;;;;;5048361;28;20480;-64
2023/08/09 06:51:49;;;;;;;18.63;10.90;;;;;;;;;;5062088;28;20111;-63
2023/08/09 06:54:16;;;;;;;16.27;11.25;;;;;;;;;;5063811;28;20053;-65
2023/08/09 06:56:42;;;;;;;19.17;11.15;;;;;;;;;;5064455;28;20528;-69
2023/08/09 06:59:10;;;;;;;14.98;10.02;;;;;;;;;;5062870;28;20060;-67
2023/08/09 07:01:37;;;;;;;15.70;10.60;;;;;;;;;;5055863;28;20076;-68
2023/08/09 07:04:04;;;;;;;15.05;10.27;;;;;;;;;;5048625;28;20545;-66
2023/08/09 07:06:30;;;;;;;15.45;9.98;;;;;;;;;;5053005;28;20138;-65
2023/08/09 07:08:57;;;;;;;14.32;9.70;;;;;;;;;;5065524;28;20097;-65
2023/08/09 07:11:23;;;;;;;14.98;9.85;;;;;;;;;;5063675;28;20057;-68
2023/08/09 07:13:50;;;;;;;16.90;9.18;;;;;;;;;;5062282;28;20055;-66
2023/08/09 07:16:16;;;;;;;14.32;9.02;;;;;;;;;;5063866;28;20130;-69
2023/08/09 07:18:43;;;;;;;15.90;8.73;;;;;;;;;;5063336;28;20057;-65
2023/08/09 07:21:09;;;;;;;14.52;9.10;;;;;;;;;;5063990;28;20057;-66
2023/08/09 07:23:36;;;;;;;15.70;9.77;;;;;;;;;;5054556;28;20065;-63
2023/08/09 07:26:22;;;;;;;13.38;8.90;;;;;;;;;;5043369;28;20081;-66
2023/08/09 07:28:48;;;;;;;20.00;9.40;;;;;;;;;;5043137;28;20064;-63
2023/08/09 07:31:16;;;;;;;14.00;8.05;;;;;;;;;;5043227;28;20053;-63
2023/08/09 07:33:43;;;;;;;12.73;8.10;;;;;;;;;;5043520;28;20140;-64
2023/08/09 07:36:10;;;;;;;12.95;8.43;;;;;;;;;;5057294;28;20085;-67
2023/08/09 07:38:37;;;;;;;12.30;8.93;;;;;;;;;;5058183;28;20052;-66
2023/08/09 07:41:04;;;;;;;26.23;8.70;;;;;;;;;;5050057;28;20053;-61
2023/08/09 07:43:30;;;;;;;13.77;7.15;;;;;;;;;;5055462;28;20564;-63
2023/08/09 07:45:56;;;;;;;15.13;7.72;;;;;;;;;;5063482;28;20057;-63
2023/08/09 07:48:23;;;;;;;7.68;5.88;;;;;;;;;;5050053;28;20048;-64
2023/08/09 07:50:49;;;;;;;10.82;6.75;;;;;;;;;;5055313;28;20064;-62
2023/08/09 07:53:16;;;;;;;11.48;6.88;;;;;;;;;;5069690;28;20127;-61
2023/08/09 07:55:42;;;;;;;10.38;6.28;;;;;;;;;;5059524;28;20064;-64
2023/08/09 07:58:09;;;;;;;9.30;5.60;;;;;;;;;;5050880;28;20096;-65
2023/08/09 08:00:35;;;;;;;9.63;4.78;;;;;;;;;;5043323;28;20587;-65
2023/08/09 08:03:15;;;;;;;10.23;5.47;;;;;;;;;;5063493;28;20049;-62
2023/08/09 08:05:42;;;;;;;7.07;5.03;;;;;;;;;;5063062;28;20049;-63
2023/08/09 08:08:11;;;;;;;8.40;4.47;;;;;;;;;;5062644;28;20499;-64
2023/08/09 08:10:38;;;;;;;6.18;4.70;;;;;;;;;;5062549;28;20513;-63
2023/08/09 08:13:04;;;;;;;8.32;5.20;;;;;;;;;;5052969;28;20054;-65
2023/08/09 08:15:31;;;;;;;9.40;5.00;;;;;;;;;;5042524;28;20258;-63
2023/08/09 08:17:58;;;;;;;8.02;4.07;;;;;;;;;;5060134;28;20543;-64
2023/08/09 08:20:24;;;;;;;6.10;4.57;;;;;;;;;;5062792;28;20057;-63
2023/08/09 08:22:51;;;;;;;6.68;3.55;;;;;;;;;;5062876;28;20048;-63
2023/08/09 08:25:19;;;;;;;10.93;4.10;;;;;;;;;;5061358;28;20517;-62
2023/08/09 08:27:46;;;;;;;6.03;4.05;;;;;;;;;;5062329;28;20052;-63
2023/08/09 08:30:14;;;;;;;5.43;3.10;;;;;;;;;;5071544;28;20561;-63
2023/08/09 08:32:41;;;;;;;5.70;2.67;;;;;;;;;;5065698;28;20061;-64
2023/08/09 08:35:13;;;;;;;5.63;3.17;;;;;;;;;;5072791;28;20056;-63
2023/08/09 08:37:40;;;;;;;4.50;3.25;;;;;;;;;;5082192;28;20062;-63
2023/08/09 08:40:08;;;;;;;4.68;3.78;;;;;;;;;;5082342;28;20507;-64
2023/08/09 08:42:35;;;;;;;7.50;3.63;;;;;;;;;;5048453;28;20045;-65
2023/08/09 08:45:09;;;;;;;3.92;3.53;;;;;;;;;;5042828;28;20200;-64
2023/08/09 08:47:38;;;;;;;5.20;3.25;;;;;;;;;;5055602;28;20119;-64
2023/08/09 08:50:05;;;;;;;6.45;3.60;;;;;;;;;;5062141;28;20477;-63
2023/08/09 08:52:33;;;;;;;10.40;3.50;;;;;;;;;;5062555;28;20060;-61
2023/08/09 08:54:59;;;;;;;6.57;2.72;;;;;;;;;;5061373;28;20459;-61
2023/08/09 08:57:26;;;;;;;5.03;3.35;;;;;;;;;;5042042;28;20103;-63
2023/08/09 08:59:53;;;;;;;5.35;3.13;;;;;;;;;;5047592;28;20053;-63
2023/08/09 09:02:19;;;;;;;5.07;3.22;;;;;;;;;;5062273;28;20057;-64
2023/08/09 09:04:46;;;;;;;5.35;2.70;;;;;;;;;;5062109;28;20048;-64
2023/08/09 09:07:13;;;;;;;4.05;2.78;;;;;;;;;;5062993;28;20060;-62
2023/08/09 09:09:59;;;;;;;4.40;2.63;;;;;;;;;;5058103;28;20187;-65
2023/08/09 09:12:25;;;;;;;5.32;2.85;;;;;;;;;;5051652;28;20262;-65
2023/08/09 09:14:52;;;;;;;4.63;2.83;;;;;;;;;;5062182;28;20694;-63
2023/08/09 09:17:21;;;;;;;9.00;3.17;;;;;;;;;;5060487;28;20059;-60
2023/08/09 09:19:48;;;;;;;4.40;2.80;;;;;;;;;;5052229;28;20068;-64
2023/08/09 09:22:25;;;;;;;6.38;2.65;;;;;;;;;;5054737;28;20140;-65
2023/08/09 09:24:51;;;;;;;3.33;2.50;;;;;;;;;;5055593;28;20158;-67
2023/08/09 09:27:25;;;;;;;5.30;2.63;;;;;;;;;;5070030;28;20064;-62
2023/08/09 09:29:52;;;;;;;2.67;2.20;;;;;;;;;;5059802;28;20056;-63
2023/08/09 09:32:20;;;;;;;3.47;2.40;;;;;;;;;;5059995;28;20144;-64
2023/08/09 09:34:48;;;;;;;4.82;2.70;;;;;;;;;;5061801;28;20049;-61
2023/08/09 09:37:17;;;;;;;3.55;2.30;;;;;;;;;;5058946;28;20052;-62
2023/08/09 09:39:46;;;;;;;8.70;3.00;;;;;;;;;;5065181;28;20635;-64
2023/08/09 09:42:13;;;;;;;2.72;2.30;;;;;;;;;;5062370;28;20074;-64
2023/08/09 09:44:41;;;;;;;6.22;2.88;;;;;;;;;;5065512;28;20084;-63
2023/08/09 09:47:08;;;;;;;4.80;2.67;;;;;;;;;;5057499;28;20065;-61
2023/08/09 09:49:35;;;;;;;4.15;2.72;;;;;;;;;;5057492;28;20050;-64
2023/08/09 09:52:03;;;;;;;4.10;2.47;;;;;;;;;;5054229;28;20599;-64
2023/08/09 09:54:31;;;;;;;9.50;3.40;;;;;;;;;;5068524;28;20126;-60
2023/08/09 09:56:59;;;;;;;4.30;2.78;;;;;;;;;;5063902;28;20064;-62
2023/08/09 09:59:26;;;;;;;4.82;2.97;;;;;;;;;;5064962;28;20060;-64
2023/08/09 10:01:53;;;;;;;5.18;2.50;;;;;;;;;;5061705;28;20504;-61
2023/08/09 10:04:20;;;;;;;3.75;2.55;;;;;;;;;;5049455;28;20498;-63
2023/08/09 10:06:47;;;;;;;4.90;2.42;;;;;;;;;;5062727;28;20593;-63
2023/08/09 10:09:16;;;;;;;2.70;2.50;;;;;;;;;;5051748;28;20417;-64
2023/08/09 10:11:43;;;;;;;2.65;2.22;;;;;;;;;;5058726;28;20543;-64
2023/08/09 10:14:11;;;;;;;2.88;2.00;;;;;;;;;;5055458;28;20049;-64
2023/08/09 10:16:38;;;;;;;4.30;2.40;;;;;;;;;;5058197;28;20057;-65
2023/08/09 10:19:08;;;;;;;4.43;1.92;;;;;;;;;;5049738;28;20083;-64
2023/08/09 10:21:35;;;;;;;4.47;2.17;;;;;;;;;;5050475;28;20100;-64
2023/08/09 10:24:01;;;;;;;3.90;2.33;;;;;;;;;;5053552;28;20649;-63
2023/08/09 10:26:31;;;;;;;2.92;2.15;;;;;;;;;;5045472;28;20100;-64
2023/08/09 10:29:04;;;;;;;2.70;2.10;;;;;;;;;;5059325;28;20227;-64
2023/08/09 10:31:47;;;;;;;4.65;2.10;;;;;;;;;;5054918;28;20491;-63
2023/08/09 10:34:15;;;;;;;2.10;1.90;;;;;;;;;;5050206;28;20479;-63
2023/08/09 10:36:43;;;;;;;4.80;2.28;;;;;;;;;;5049390;28;20057;-65
2023/08/09 10:39:19;;;;;;;1.98;1.77;;;;;;;;;;5052396;28;20057;-65
2023/08/09 10:41:53;;;;;;;5.95;2.17;;;;;;;;;;5047901;28;20049;-64
2023/08/09 10:44:30;;;;;;;2.67;1.60;;;;;;;;;;5058979;28;20053;-66
2023/08/09 10:47:05;;;;;;;3.05;1.80;;;;;;;;;;5053952;28;20531;-64
2023/08/09 10:49:50;;;;;;;3.53;1.90;;;;;;;;;;5043790;28;20094;-64
2023/08/09 10:52:19;;;;;;;6.07;2.17;;;;;;;;;;5051460;28;20523;-65
2023/08/09 10:54:50;;;;;;;3.20;1.98;;;;;;;;;;5051605;28;20048;-62
2023/08/09 10:57:16;;;;;;;3.38;2.08;;;;;;;;;;5042589;28;20056;-63
2023/08/09 10:59:43;;;;;;;2.10;1.65;;;;;;;;;;5052982;28;20168;-64
2023/08/09 11:02:10;;;;;;;3.40;1.42;;;;;;;;;;5051447;28;20076;-65
2023/08/09 11:04:38;;;;;;;3.60;1.73;;;;;;;;;;5049055;28;20147;-66
2023/08/09 11:07:06;;;;;;;4.43;1.95;;;;;;;;;;5059616;28;20540;-63
2023/08/09 11:09:33;;;;;;;4.70;1.80;;;;;;;;;;5052707;28;20498;-62
2023/08/09 11:12:00;;;;;;;3.80;1.27;;;;;;;;;;5060347;28;20062;-64
2023/08/09 11:14:29;;;;;;;2.65;1.35;;;;;;;;;;5057481;28;20052;-65
2023/08/09 11:16:56;;;;;;;2.88;1.20;;;;;;;;;;5060249;28;20126;-65
2023/08/09 11:19:28;;;;;;;1.95;1.17;;;;;;;;;;5059114;28;20052;-65
2023/08/09 11:22:01;;;;;;;2.83;1.50;;;;;;;;;;5051466;28;20062;-64
2023/08/09 11:24:29;;;;;;;1.45;1.13;;;;;;;;;;5047431;28;20522;-63
2023/08/09 11:27:00;;;;;;;4.50;1.63;;;;;;;;;;5060479;28;20053;-65
2023/08/09 11:29:28;;;;;;;6.95;2.08;;;;;;;;;;5056501;28;20093;-64
2023/08/09 11:31:56;;;;;;;3.60;1.58;;;;;;;;;;5054121;28;20053;-66
2023/08/09 11:34:23;;;;;;;1.50;1.23;;;;;;;;;;5062412;28;20143;-64
2023/08/09 11:36:55;;;;;;;3.97;1.40;;;;;;;;;;5057903;28;20057;-64
2023/08/09 11:39:24;;;;;;;3.50;1.08;;;;;;;;;;5055438;28;20054;-64
2023/08/09 11:41:53;;;;;;;3.25;1.27;;;;;;;;;;5051248;28;20085;-65
2023/08/09 11:44:30;;;;;;;2.42;1.30;;;;;;;;;;5060681;28;20051;-64
2023/08/09 11:46:59;;;;;;;1.55;1.08;;;;;;;;;;5048784;28;20064;-64
2023/08/09 11:49:29;;;;;;;5.55;1.05;;;;;;;;;;5049172;28;20045;-40
2023/08/09 11:52:00;;;;;;;2.03;1.00;;;;;;;;;;5052146;28;20352;-63
2023/08/09 11:54:28;;;;;;;1.52;1.23;;;;;;;;;;5052889;28;20061;-69
2023/08/09 11:56:54;;;;;;;1.98;1.10;;;;;;;;;;5050591;28;20053;-68
2023/08/09 11:59:22;;;;;;;2.05;0.90;;;;;;;;;;5062360;28;20126;-68
2023/08/09 12:01:52;;;;;;;1.92;1.02;;;;;;;;;;5062831;28;20480;-67
2023/08/09 12:04:22;;;;;;;4.72;1.15;;;;;;;;;;5053442;28;20107;-66
2023/08/09 12:07:05;;;;;;;4.10;1.10;;;;;;;;;;5061850;28;20052;-68
2023/08/09 12:09:42;;;;;;;2.58;1.27;;;;;;;;;;5061297;28;20065;-64
2023/08/09 12:12:19;;;;;;;3.13;1.00;;;;;;;;;;5049530;28;20056;-72
2023/08/09 12:14:47;;;;;;;1.23;1.10;;;;;;;;;;5063126;28;20513;-66
2023/08/09 12:17:20;;;;;;;1.17;0.80;;;;;;;;;;5054772;28;20076;-67
2023/08/09 12:19:49;;;;;;;2.42;1.10;;;;;;;;;;5053297;28;20101;-67
2023/08/09 12:22:16;;;;;;;2.17;0.90;;;;;;;;;;5047957;28;20156;-65
2023/08/09 12:24:43;;;;;;;2.53;1.23;;;;;;;;;;5060546;28;20144;-68
2023/08/09 12:27:09;;;;;;;1.40;0.90;;;;;;;;;;5061201;28;20053;-65
2023/08/09 12:29:36;;;;;;;0.93;0.70;;;;;;;;;;5062073;28;20439;-68
2023/08/09 12:32:03;;;;;;;1.88;1.23;;;;;;;;;;5058451;28;20130;-64
2023/08/09 12:34:30;;;;;;;1.33;0.90;;;;;;;;;;5051490;28;20053;-69
2023/08/09 12:36:58;;;;;;;3.35;1.30;;;;;;;;;;5054197;28;20486;-67
2023/08/09 12:39:26;;;;;;;2.05;0.85;;;;;;;;;;5072741;28;20247;-68
2023/08/09 12:41:53;;;;;;;1.05;0.63;;;;;;;;;;5067731;28;20048;-67
2023/08/09 12:44:19;;;;;;;1.73;1.02;;;;;;;;;;5071787;28;20052;-67
2023/08/09 12:46:45;;;;;;;3.78;0.90;;;;;;;;;;5047559;28;20053;-64
2023/08/09 12:49:12;;;;;;;2.72;0.75;;;;;;;;;;5057948;28;20056;-68
2023/08/09 12:51:38;;;;;;;2.53;0.90;;;;;;;;;;5052164;28;20060;-68
2023/08/09 12:54:05;;;;;;;3.70;0.70;;;;;;;;;;5060479;28;20064;-65
2023/08/09 12:56:32;;;;;;;2.25;0.70;;;;;;;;;;5053551;28;20526;-68
2023/08/09 12:58:59;;;;;;;0.95;0.73;;;;;;;;;;5048449;28;20230;-66
2023/08/09 13:01:27;;;;;;;1.35;0.80;;;;;;;;;;5053577;28;20053;-69
2023/08/09 13:03:53;;;;;;;3.88;0.85;;;;;;;;;;5054359;28;20053;-68
2023/08/09 13:06:20;;;;;;;1.52;0.80;;;;;;;;;;5060773;28;20521;-66
2023/08/09 13:08:47;;;;;;;2.13;0.90;;;;;;;;;;5050373;28;20593;-63
2023/08/09 13:11:13;;;;;;;1.48;0.68;;;;;;;;;;5059428;28;20576;-67
2023/08/09 13:13:40;;;;;;;1.58;0.80;;;;;;;;;;5070950;28;20123;-69
2023/08/09 13:16:07;;;;;;;2.97;0.80;;;;;;;;;;5064007;28;20652;-68
2023/08/09 13:18:34;;;;;;;0.93;0.70;;;;;;;;;;5063896;28;20052;-66
2023/08/09 13:21:02;;;;;;;8.98;1.05;;;;;;;;;;5051795;28;20053;-64
2023/08/09 13:23:29;;;;;;;2.88;1.20;;;;;;;;;;5058656;28;20092;-68
2023/08/09 13:25:55;;;;;;;3.42;0.85;;;;;;;;;;5064610;28;20060;-67
2023/08/09 13:28:22;;;;;;;5.15;1.30;;;;;;;;;;5055452;28;20053;-67
2023/08/09 13:30:48;;;;;;;1.00;0.70;;;;;;;;;;5043679;28;20049;-66
2023/08/09 13:33:15;;;;;;;2.95;1.00;;;;;;;;;;5061600;28;20585;-65
2023/08/09 13:35:42;;;;;;;3.20;0.98;;;;;;;;;;5056218;28;20061;-62
2023/08/09 13:38:23;;;;;;;2.83;1.10;;;;;;;;;;5063087;28;20088;-63
2023/08/09 13:40:49;;;;;;;2.72;0.90;;;;;;;;;;5064160;28;20084;-65
2023/08/09 13:43:16;;;;;;;2.15;0.93;;;;;;;;;;5061940;28;20515;-65
2023/08/09 13:45:43;;;;;;;3.03;0.95;;;;;;;;;;5056999;28;20104;-65
2023/08/09 13:48:09;;;;;;;2.50;0.90;;;;;;;;;;5059110;28;20053;-66
2023/08/09 13:50:35;;;;;;;1.83;1.10;;;;;;;;;;5064076;28;20049;-66
2023/08/09 13:53:03;;;;;;;5.45;1.10;;;;;;;;;;5052295;28;20192;-64
2023/08/09 13:55:29;;;;;;;3.00;0.80;;;;;;;;;;5056785;28;20096;-65
2023/08/09 13:57:58;;;;;;;1.20;0.85;;;;;;;;;;5057965;28;20053;-65
2023/08/09 14:00:25;;;;;;;4.18;1.30;;;;;;;;;;5062870;28;20127;-64
2023/08/09 14:02:51;;;;;;;3.15;1.23;;;;;;;;;;5064424;28;20456;-63
2023/08/09 14:05:18;;;;;;;2.20;1.00;;;;;;;;;;5062650;28;20064;-62
2023/08/09 14:07:45;;;;;;;1.90;1.15;;;;;;;;;;5063111;28;20539;-66
2023/08/09 14:10:12;;;;;;;2.70;1.05;;;;;;;;;;5050315;28;20049;-65
2023/08/09 14:12:38;;;;;;;1.90;0.68;;;;;;;;;;5063333;28;20057;-65
2023/08/09 14:15:05;;;;;;;5.47;1.17;;;;;;;;;;5062335;28;20594;-63
2023/08/09 14:17:31;;;;;;;2.90;1.15;;;;;;;;;;5061357;28;20470;-65
2023/08/09 14:19:58;;;;;;;1.90;1.00;;;;;;;;;;5055982;28;20057;-66
2023/08/09 14:22:25;;;;;;;3.10;1.00;;;;;;;;;;5058245;28;20144;-64
2023/08/09 14:24:51;;;;;;;3.33;1.00;;;;;;;;;;5063843;28;20139;-65
2023/08/09 14:27:17;;;;;;;5.78;0.80;;;;;;;;;;5060762;28;20119;-64
2023/08/09 14:29:45;;;;;;;1.67;0.88;;;;;;;;;;5060121;28;20134;-61
2023/08/09 14:32:12;;;;;;;2.53;1.10;;;;;;;;;;5062785;28;20553;-64
2023/08/09 14:34:38;;;;;;;3.33;1.25;;;;;;;;;;5053341;28;20057;-63
2023/08/09 14:37:05;;;;;;;11.57;1.10;;;;;;;;;;5053092;28;20143;-65
2023/08/09 14:39:35;;;;;;;3.67;1.30;;;;;;;;;;5061838;28;20071;-65